Time;durP1;ratioP1;P1;durP2;ratioP2;P2;SDS_P1;SDS_P2;PMS_P1;PMS_P2;Temp;Humidity;BMP_temperature;BMP_pressure;BME280_temperature;BME280_humidity;BME280_pressure;Samples;Min_cycle;Max_cycle;Signal;HPM_P1;HPM_P2
2023/01/23 00:00:53;;;;;;;20.17;9.60;;;;;;;0.41;95.59;103406.22;5063670;28;20024;-75
2023/01/23 00:03:18;;;;;;;22.50;10.57;;;;;;;0.42;95.60;103402.84;5062320;28;20037;-74
2023/01/23 00:05:44;;;;;;;19.83;9.33;;;;;;;0.43;95.73;103396.94;5062343;28;20387;-74
2023/01/23 00:08:09;;;;;;;19.27;9.90;;;;;;;0.44;95.63;103388.47;5063942;28;20040;-74
2023/01/23 00:10:37;;;;;;;18.20;9.80;;;;;;;0.42;95.51;103387.50;5057530;28;20080;-74
2023/01/23 00:13:03;;;;;;;20.17;10.40;;;;;;;0.40;95.23;103383.94;5061575;28;20020;-74
2023/01/23 00:15:28;;;;;;;17.07;9.47;;;;;;;0.41;95.13;103393.41;5063279;28;20036;-74
2023/01/23 00:17:54;;;;;;;20.70;9.93;;;;;;;0.41;95.14;103385.72;5063308;28;20033;-74
2023/01/23 00:20:19;;;;;;;20.13;10.77;;;;;;;0.41;94.94;103382.28;5057513;28;20074;-74
2023/01/23 00:22:44;;;;;;;21.67;10.93;;;;;;;0.39;95.31;103384.75;5057537;28;20040;-74
2023/01/23 00:25:10;;;;;;;18.23;10.00;;;;;;;0.37;95.31;103388.88;5063417;28;20479;-74
2023/01/23 00:27:35;;;;;;;21.67;10.50;;;;;;;0.34;95.04;103388.75;5057382;28;20029;-73
2023/01/23 00:30:00;;;;;;;20.80;10.23;;;;;;;0.34;95.23;103390.41;5065592;28;20021;-74
2023/01/23 00:32:26;;;;;;;19.47;9.80;;;;;;;0.33;95.20;103401.44;5060726;28;20446;-75
2023/01/23 00:34:52;;;;;;;17.93;9.77;;;;;;;0.33;95.60;103402.34;5059476;28;20542;-74
2023/01/23 00:37:17;;;;;;;20.07;10.13;;;;;;;0.33;95.35;103402.34;5068574;28;20021;-74
2023/01/23 00:39:44;;;;;;;16.57;9.13;;;;;;;0.32;95.37;103405.69;5062637;28;20047;-74
2023/01/23 00:42:09;;;;;;;21.67;10.33;;;;;;;0.32;95.11;103413.38;5063835;28;20036;-75
2023/01/23 00:44:34;;;;;;;19.63;10.13;;;;;;;0.32;95.00;103415.94;5065142;28;20373;-74
2023/01/23 00:47:00;;;;;;;18.77;10.03;;;;;;;0.32;95.59;103420.16;5064927;28;20020;-74
2023/01/23 00:49:25;;;;;;;17.57;9.40;;;;;;;0.33;95.12;103422.81;5060208;28;20098;-74
2023/01/23 00:51:51;;;;;;;18.73;9.33;;;;;;;0.33;95.53;103422.81;5065427;28;20032;-74
2023/01/23 00:54:19;;;;;;;18.10;9.70;;;;;;;0.34;95.36;103428.81;5062388;28;20071;-74
2023/01/23 00:56:44;;;;;;;19.77;9.67;;;;;;;0.34;96.23;103424.59;5064028;28;20028;-74
2023/01/23 00:59:09;;;;;;;18.03;9.37;;;;;;;0.35;95.91;103420.34;5062139;28;20388;-74
2023/01/23 01:01:35;;;;;;;17.83;8.90;;;;;;;0.36;95.68;103417.84;5062091;28;20073;-74
2023/01/23 01:04:00;;;;;;;20.33;10.03;;;;;;;0.36;95.62;103414.41;5062645;28;21634;-74
2023/01/23 01:06:25;;;;;;;17.07;8.93;;;;;;;0.37;95.50;103418.75;5065458;28;20115;-74
2023/01/23 01:08:51;;;;;;;18.93;9.80;;;;;;;0.36;95.63;103407.59;5061463;28;20481;-75
2023/01/23 01:11:16;;;;;;;18.13;9.70;;;;;;;0.36;95.46;103415.28;5064222;28;20051;-74
2023/01/23 01:13:42;;;;;;;17.37;9.07;;;;;;;0.36;95.57;103412.72;5061366;28;20075;-74
2023/01/23 01:16:09;;;;;;;17.23;9.13;;;;;;;0.38;95.59;103420.53;5061630;28;20024;-74
2023/01/23 01:18:34;;;;;;;16.73;8.80;;;;;;;0.38;95.82;103411.16;5057556;28;20044;-74
2023/01/23 01:20:59;;;;;;;17.17;9.23;;;;;;;0.38;95.30;103413.72;5063140;28;20149;-74
2023/01/23 01:23:25;;;;;;;17.27;9.23;;;;;;;0.39;95.60;103419.72;5063318;28;20028;-75
2023/01/23 01:25:50;;;;;;;18.80;9.60;;;;;;;0.40;95.96;103424.06;5061226;28;20025;-75
2023/01/23 01:28:16;;;;;;;19.33;9.87;;;;;;;0.40;96.22;103424.06;5063786;28;20463;-74
2023/01/23 01:30:41;;;;;;;17.63;9.33;;;;;;;0.42;95.73;103427.59;5056259;28;20037;-75
2023/01/23 01:33:07;;;;;;;18.60;9.63;;;;;;;0.44;95.54;103421.75;5063497;28;20017;-75
2023/01/23 01:35:33;;;;;;;18.83;9.37;;;;;;;0.44;95.51;103426.88;5062653;28;20040;-74
2023/01/23 01:37:58;;;;;;;20.43;10.13;;;;;;;0.43;95.53;103430.22;5062526;28;20250;-74
2023/01/23 01:40:26;;;;;;;17.73;9.17;;;;;;;0.42;95.91;103431.03;5061840;28;20043;-74
2023/01/23 01:42:57;;;;;;;17.33;8.93;;;;;;;0.44;95.74;103425.97;5066083;28;20040;-74
2023/01/23 01:45:58;;;;;;;18.33;9.30;;;;;;;0.45;95.58;103433.78;5064301;28;20028;-74
2023/01/23 01:48:28;;;;;;;17.60;8.88;;;;;;;0.45;95.65;103433.78;5060282;28;20111;-75
2023/01/23 01:50:54;;;;;;;19.47;9.20;;;;;;;0.45;95.57;103444.00;5060620;28;20488;-75
2023/01/23 01:53:24;;;;;;;16.20;8.77;;;;;;;0.45;95.87;103443.13;5059159;28;20025;-75
2023/01/23 01:55:49;;;;;;;21.13;9.47;;;;;;;0.45;95.78;103441.47;5061749;28;20150;-74
2023/01/23 01:58:15;;;;;;;16.27;9.03;;;;;;;0.45;95.69;103438.00;5065235;28;20107;-74
2023/01/23 02:00:40;;;;;;;18.13;9.00;;;;;;;0.45;95.95;103432.88;5065979;28;20032;-74
2023/01/23 02:03:06;;;;;;;16.03;9.17;;;;;;;0.44;95.97;103437.13;5065792;28;20033;-75
2023/01/23 02:05:43;;;;;;;18.77;9.40;;;;;;;0.44;96.13;103432.00;5063653;28;21663;-75
2023/01/23 02:08:37;;;;;;;16.20;8.90;;;;;;;0.45;95.90;103427.75;5064986;28;20024;-75
2023/01/23 02:11:05;;;;;;;18.17;8.87;;;;;;;0.45;95.69;103431.22;5048967;28;20076;-74
2023/01/23 02:13:34;;;;;;;17.13;8.50;;;;;;;0.47;95.62;103431.28;5068405;28;20103;-74
2023/01/23 02:16:03;;;;;;;17.40;9.03;;;;;;;0.47;96.00;103433.84;5069441;28;20031;-75
2023/01/23 02:18:31;;;;;;;17.57;8.83;;;;;;;0.48;95.69;103429.63;5065507;28;20046;-75
2023/01/23 02:21:00;;;;;;;17.03;9.10;;;;;;;0.47;96.22;103430.41;5068493;28;20039;-74
2023/01/23 02:23:39;;;;;;;17.67;9.23;;;;;;;0.48;96.24;103433.06;5065216;28;20024;-75
2023/01/23 02:26:10;;;;;;;18.53;9.57;;;;;;;0.48;95.96;103427.06;5065164;28;22740;-74
2023/01/23 02:28:39;;;;;;;15.87;8.57;;;;;;;0.50;95.51;103431.47;5066360;28;20030;-74
2023/01/23 02:31:04;;;;;;;18.20;9.87;;;;;;;0.51;96.38;103420.44;5069577;28;20025;-74
2023/01/23 02:33:29;;;;;;;16.87;9.43;;;;;;;0.51;96.13;103429.81;5063352;28;20028;-74
2023/01/23 02:35:55;;;;;;;18.17;9.40;;;;;;;0.52;95.68;103426.41;5067939;28;20109;-74
2023/01/23 02:38:24;;;;;;;18.97;9.73;;;;;;;0.53;95.85;103420.50;5063338;28;20162;-74
2023/01/23 02:40:51;;;;;;;20.37;10.13;;;;;;;0.54;95.96;103427.41;5064658;28;20024;-74
2023/01/23 02:43:24;;;;;;;20.20;10.53;;;;;;;0.54;96.21;103419.72;5064625;28;20364;-74
2023/01/23 02:45:49;;;;;;;19.27;9.40;;;;;;;0.56;96.02;103420.69;5063290;28;20028;-74
2023/01/23 02:48:14;;;;;;;20.27;10.13;;;;;;;0.58;96.27;103421.66;5069390;28;20028;-74
2023/01/23 02:50:42;;;;;;;21.97;10.47;;;;;;;0.59;96.00;103423.44;5065367;28;20059;-74
2023/01/23 02:53:07;;;;;;;18.70;9.93;;;;;;;0.58;95.97;103422.56;5045932;28;20024;-74
2023/01/23 02:55:33;;;;;;;19.67;10.00;;;;;;;0.57;96.09;103417.34;5066001;28;20568;-74
2023/01/23 03:00:44;;;;;;;18.77;9.83;;;;;;;0.58;96.48;103419.09;5063501;28;20102;-74
2023/01/23 03:03:10;;;;;;;19.50;9.60;;;;;;;0.59;96.01;103416.66;5068478;28;20361;-74
2023/01/23 03:05:35;;;;;;;21.37;10.00;;;;;;;0.60;96.25;103422.63;5065100;28;20062;-74
2023/01/23 03:08:00;;;;;;;18.67;10.10;;;;;;;0.62;96.14;103417.59;5064075;28;20025;-75
2023/01/23 03:10:26;;;;;;;19.57;10.30;;;;;;;0.60;96.45;103423.50;5062398;28;20185;-74
2023/01/23 03:12:51;;;;;;;19.70;9.80;;;;;;;0.63;96.43;103416.78;5070099;28;20056;-75
2023/01/23 03:15:16;;;;;;;19.50;9.63;;;;;;;0.63;95.96;103417.69;5068018;28;20090;-75
2023/01/23 03:17:42;;;;;;;20.23;10.77;;;;;;;0.64;95.81;103419.47;5065981;28;20032;-75
2023/01/23 03:20:08;;;;;;;20.37;10.43;;;;;;;0.63;96.09;103427.03;5055026;28;20044;-75
2023/01/23 03:22:33;;;;;;;21.07;11.03;;;;;;;0.60;96.28;103427.75;5068359;28;20025;-75
2023/01/23 03:25:00;;;;;;;19.97;10.47;;;;;;;0.59;96.18;103421.78;5070313;28;20086;-75
2023/01/23 03:27:25;;;;;;;21.80;10.13;;;;;;;0.61;95.94;103429.53;5072930;28;20055;-75
2023/01/23 03:32:36;;;;;;;20.83;10.27;;;;;;;0.64;96.34;103434.84;5057049;28;20047;-74
2023/01/23 03:35:01;;;;;;;18.60;9.40;;;;;;;0.64;96.32;103432.28;5061147;28;20043;-74
2023/01/23 03:37:26;;;;;;;19.60;10.33;;;;;;;0.65;96.04;103436.59;5072819;28;20108;-74
2023/01/23 03:42:35;;;;;;;20.17;10.00;;;;;;;0.64;96.24;103433.94;5071149;28;20590;-74
2023/01/23 03:45:01;;;;;;;21.60;10.50;;;;;;;0.63;96.38;103435.63;5065469;28;20168;-74
2023/01/23 03:47:27;;;;;;;20.50;10.27;;;;;;;0.63;96.29;103430.50;5053663;28;20472;-74
2023/01/23 03:49:52;;;;;;;21.47;10.27;;;;;;;0.64;96.10;103441.63;5059423;28;20035;-75
2023/01/23 03:52:17;;;;;;;22.60;10.83;;;;;;;0.61;96.43;103439.78;5057758;28;20123;-74
2023/01/23 03:54:43;;;;;;;22.97;11.83;;;;;;;0.63;96.14;103438.19;5053063;28;20021;-74
2023/01/23 03:57:09;;;;;;;22.07;10.50;;;;;;;0.61;96.22;103437.22;5053628;28;20163;-74
2023/01/23 03:59:34;;;;;;;21.50;10.63;;;;;;;0.61;96.30;103439.78;5071297;28;20028;-74
2023/01/23 04:02:00;;;;;;;21.47;10.87;;;;;;;0.61;96.19;103439.78;5072827;28;20077;-74
2023/01/23 04:04:26;;;;;;;20.17;9.77;;;;;;;0.64;96.36;103436.50;5070750;28;20107;-75
2023/01/23 04:06:51;;;;;;;24.33;11.50;;;;;;;0.64;96.55;103433.94;5052849;28;20031;-75
2023/01/23 04:09:16;;;;;;;23.40;10.83;;;;;;;0.64;96.09;103439.97;5056524;28;20032;-74
2023/01/23 04:11:41;;;;;;;22.23;11.00;;;;;;;0.64;96.07;103434.84;5072002;28;20051;-75
2023/01/23 04:14:07;;;;;;;21.37;11.10;;;;;;;0.63;96.15;103445.88;5065817;28;20033;-74
2023/01/23 04:16:32;;;;;;;21.57;10.77;;;;;;;0.63;96.39;103438.19;5058482;28;20469;-75
2023/01/23 04:18:57;;;;;;;25.80;11.80;;;;;;;0.63;96.42;103433.06;5072034;28;20032;-74
2023/01/23 04:21:23;;;;;;;22.73;11.60;;;;;;;0.63;96.46;103433.06;5070343;28;20030;-74
2023/01/23 04:23:48;;;;;;;20.77;10.50;;;;;;;0.64;96.73;103426.25;5066665;28;20039;-75
2023/01/23 04:26:13;;;;;;;19.63;10.10;;;;;;;0.63;96.68;103427.94;5070419;28;20082;-74
2023/01/23 04:28:38;;;;;;;19.20;9.87;;;;;;;0.63;96.89;103427.03;5066366;28;20021;-75
2023/01/23 04:31:04;;;;;;;22.07;10.77;;;;;;;0.62;96.33;103435.53;5058544;28;20480;-75
2023/01/23 04:33:30;;;;;;;20.33;9.90;;;;;;;0.60;96.74;103438.88;5057885;28;20051;-74
2023/01/23 04:35:58;;;;;;;22.07;11.07;;;;;;;0.63;96.38;103440.75;5060048;28;20132;-74
2023/01/23 04:38:25;;;;;;;22.77;11.53;;;;;;;0.62;96.41;103450.91;5068330;28;20106;-75
2023/01/23 04:40:51;;;;;;;22.80;11.20;;;;;;;0.60;96.47;103453.38;5059868;28;20040;-74
2023/01/23 04:43:16;;;;;;;23.00;10.20;;;;;;;0.60;96.84;103455.94;5063658;28;20086;-75
2023/01/23 04:45:42;;;;;;;26.17;11.47;;;;;;;0.61;96.33;103452.59;5065115;28;20029;-75
2023/01/23 04:48:09;;;;;;;22.43;11.37;;;;;;;0.60;96.46;103438.00;5054298;28;20116;-74
2023/01/23 04:50:34;;;;;;;21.83;10.67;;;;;;;0.62;96.81;103456.91;5062493;28;20480;-74
2023/01/23 04:53:00;;;;;;;19.13;10.33;;;;;;;0.62;96.60;103450.91;5067012;28;20044;-75
2023/01/23 04:55:27;;;;;;;22.90;10.50;;;;;;;0.61;96.86;103455.16;5057953;28;20093;-74
2023/01/23 04:57:52;;;;;;;19.53;10.30;;;;;;;0.60;96.72;103451.69;5060984;28;20020;-75
2023/01/23 05:00:18;;;;;;;23.00;11.03;;;;;;;0.61;96.49;103450.03;5058794;28;20442;-74
2023/01/23 05:02:45;;;;;;;24.80;10.77;;;;;;;0.60;96.88;103455.94;5052524;28;20028;-75
2023/01/23 05:05:11;;;;;;;24.93;10.60;;;;;;;0.60;96.87;103453.38;5053010;28;20036;-74
2023/01/23 05:07:37;;;;;;;21.13;10.43;;;;;;;0.60;96.61;103448.25;5062822;28;20033;-74
2023/01/23 05:10:02;;;;;;;23.57;11.90;;;;;;;0.62;96.38;103463.69;5057107;28;20024;-75
2023/01/23 05:12:28;;;;;;;22.00;11.10;;;;;;;0.60;96.55;103458.50;5069842;28;20033;-74
2023/01/23 05:14:53;;;;;;;22.37;11.00;;;;;;;0.58;96.92;103460.09;5071110;28;20021;-74
2023/01/23 05:17:18;;;;;;;21.27;12.00;;;;;;;0.58;97.03;103461.00;5061305;28;20036;-74
2023/01/23 05:19:44;;;;;;;20.83;11.53;;;;;;;0.57;96.96;103464.34;5060568;28;20098;-74
2023/01/23 05:22:09;;;;;;;22.53;10.70;;;;;;;0.58;97.29;103465.22;5062397;28;20035;-74
2023/01/23 05:24:34;;;;;;;19.03;10.60;;;;;;;0.60;97.00;103463.63;5048989;28;20024;-74
2023/01/23 05:27:00;;;;;;;23.27;11.73;;;;;;;0.61;97.07;103462.84;5050227;28;20021;-74
2023/01/23 05:29:25;;;;;;;21.30;10.70;;;;;;;0.60;96.84;103468.75;5063734;28;20039;-75
2023/01/23 05:31:50;;;;;;;24.67;10.73;;;;;;;0.62;96.94;103466.25;5064089;28;20032;-74
2023/01/23 05:34:15;;;;;;;22.40;11.37;;;;;;;0.62;96.82;103468.81;5068104;28;20025;-75
2023/01/23 05:36:41;;;;;;;23.60;11.47;;;;;;;0.61;97.09;103462.84;5052608;28;20028;-75
2023/01/23 05:39:06;;;;;;;21.37;10.13;;;;;;;0.63;97.03;103468.94;5052992;28;20460;-74
2023/01/23 05:41:31;;;;;;;22.50;11.00;;;;;;;0.63;96.77;103457.78;5064907;28;20028;-76
2023/01/23 05:43:57;;;;;;;25.20;12.20;;;;;;;0.64;97.05;103460.47;5059690;28;20056;-75
2023/01/23 05:46:22;;;;;;;26.13;11.87;;;;;;;0.60;96.62;103469.63;5064948;28;20074;-74
2023/01/23 05:48:49;;;;;;;25.73;12.00;;;;;;;0.59;97.23;103473.00;5066889;28;20031;-76
2023/01/23 05:51:15;;;;;;;20.67;10.77;;;;;;;0.57;97.27;103479.72;5048687;28;20387;-75
2023/01/23 05:53:40;;;;;;;20.87;10.60;;;;;;;0.60;97.85;103494.38;5065183;28;20029;-76
2023/01/23 05:56:06;;;;;;;21.40;10.73;;;;;;;0.64;97.19;103491.19;5067606;28;20052;-74
2023/01/23 05:58:31;;;;;;;19.93;10.27;;;;;;;0.66;97.38;103494.75;5041024;28;20090;-74
2023/01/23 06:00:57;;;;;;;21.53;10.63;;;;;;;0.68;97.08;103488.03;5062295;28;20032;-75
2023/01/23 06:03:22;;;;;;;22.90;10.63;;;;;;;0.68;97.37;103495.72;5067529;28;20029;-74
2023/01/23 06:05:47;;;;;;;19.90;10.23;;;;;;;0.70;97.54;103486.41;5061172;28;20024;-74
2023/01/23 06:08:12;;;;;;;22.70;10.67;;;;;;;0.73;97.49;103488.28;5063237;28;20489;-74
2023/01/23 06:10:38;;;;;;;20.97;9.83;;;;;;;0.73;97.21;103486.59;5059595;28;20044;-75
2023/01/23 06:13:03;;;;;;;23.33;11.00;;;;;;;0.73;97.16;103494.28;5066278;28;20051;-74
2023/01/23 06:15:28;;;;;;;23.77;10.93;;;;;;;0.73;97.25;103496.84;5066360;28;20563;-75
2023/01/23 06:17:54;;;;;;;21.00;10.83;;;;;;;0.75;97.15;103502.06;5063093;28;20031;-75
2023/01/23 06:20:19;;;;;;;19.50;10.40;;;;;;;0.75;97.60;103502.06;5063382;28;20435;-74
2023/01/23 06:22:45;;;;;;;17.10;9.00;;;;;;;0.75;97.57;103505.50;5060158;28;20074;-74
2023/01/23 06:25:10;;;;;;;22.87;11.30;;;;;;;0.75;97.26;103510.63;5066894;28;20028;-74
2023/01/23 06:27:36;;;;;;;20.40;9.80;;;;;;;0.77;97.48;103507.28;5067225;28;21700;-74
2023/01/23 06:30:01;;;;;;;22.53;10.60;;;;;;;0.74;97.48;103508.88;5063017;28;20033;-74
2023/01/23 06:32:26;;;;;;;20.00;10.03;;;;;;;0.75;97.62;103505.50;5057945;28;20037;-74
2023/01/23 06:34:52;;;;;;;20.83;10.97;;;;;;;0.74;97.04;103503.75;5057885;28;20021;-75
2023/01/23 06:37:17;;;;;;;18.97;9.60;;;;;;;0.75;97.54;103495.25;5056073;28;20422;-75
2023/01/23 06:39:42;;;;;;;18.83;9.10;;;;;;;0.77;97.59;103497.03;5054636;28;20112;-76
2023/01/23 06:42:09;;;;;;;19.37;10.13;;;;;;;0.78;97.50;103504.78;5063261;28;20043;-75
2023/01/23 06:44:36;;;;;;;19.20;9.90;;;;;;;0.79;97.51;103498.00;5054500;28;20393;-75
2023/01/23 06:47:01;;;;;;;18.77;9.70;;;;;;;0.78;97.43;103509.03;5070518;28;20471;-75
2023/01/23 06:49:26;;;;;;;19.60;9.80;;;;;;;0.79;97.38;103503.13;5074287;28;20035;-75
2023/01/23 06:51:52;;;;;;;24.33;10.97;;;;;;;0.79;97.29;103495.44;5072705;28;20031;-74
2023/01/23 06:54:17;;;;;;;19.20;9.80;;;;;;;0.79;97.22;103506.56;5059189;28;20063;-75
2023/01/23 06:56:42;;;;;;;19.40;10.00;;;;;;;0.81;97.25;103506.66;5073123;28;20036;-75
2023/01/23 06:59:07;;;;;;;20.37;9.47;;;;;;;0.82;97.43;103513.56;5073564;28;20099;-74
2023/01/23 07:01:33;;;;;;;20.20;10.07;;;;;;;0.81;97.26;103514.34;5067893;28;20482;-75
2023/01/23 07:03:58;;;;;;;18.37;9.87;;;;;;;0.82;97.48;103521.25;5073035;28;20025;-75
2023/01/23 07:06:23;;;;;;;18.77;9.83;;;;;;;0.81;97.48;103522.91;5074548;28;20032;-74
2023/01/23 07:08:49;;;;;;;17.87;9.53;;;;;;;0.83;97.33;103523.88;5074001;28;20043;-75
2023/01/23 07:11:14;;;;;;;17.80;9.33;;;;;;;0.85;97.76;103522.31;5057107;28;20063;-75
2023/01/23 07:13:39;;;;;;;18.10;9.93;;;;;;;0.85;97.33;103526.56;5054070;28;20458;-74
2023/01/23 07:16:05;;;;;;;17.87;9.63;;;;;;;0.86;97.32;103531.75;5054975;28;20525;-74
2023/01/23 07:18:31;;;;;;;19.40;9.67;;;;;;;0.87;97.37;103532.63;5060963;28;20024;-74
2023/01/23 07:20:56;;;;;;;21.17;10.17;;;;;;;0.87;97.53;103536.09;5072316;28;20382;-74
2023/01/23 07:23:22;;;;;;;18.23;9.67;;;;;;;0.88;97.77;103539.53;5073600;28;20387;-74
2023/01/23 07:25:47;;;;;;;16.67;9.37;;;;;;;0.88;97.64;103536.97;5073588;28;20028;-75
2023/01/23 07:28:13;;;;;;;21.40;10.40;;;;;;;0.90;97.61;103546.53;5073725;28;20111;-75
2023/01/23 07:30:38;;;;;;;18.87;9.83;;;;;;;0.90;97.38;103541.41;5062907;28;20075;-75
2023/01/23 07:33:03;;;;;;;18.73;9.93;;;;;;;0.90;97.19;103540.50;5067667;28;20028;-74
2023/01/23 07:35:29;;;;;;;19.90;10.00;;;;;;;0.92;97.24;103541.47;5073411;28;20425;-75
2023/01/23 07:37:55;;;;;;;18.70;9.83;;;;;;;0.91;97.69;103547.41;5072440;28;20035;-75
2023/01/23 07:40:20;;;;;;;19.13;10.03;;;;;;;0.90;97.55;103546.53;5073582;28;20095;-75
2023/01/23 07:42:46;;;;;;;19.40;10.20;;;;;;;0.92;97.33;103554.28;5073257;28;20020;-74
2023/01/23 07:45:12;;;;;;;17.67;10.03;;;;;;;0.94;97.29;103562.09;5071901;28;20430;-75
2023/01/23 07:47:38;;;;;;;18.47;10.10;;;;;;;0.94;97.35;103557.84;5073260;28;20056;-75
2023/01/23 07:50:09;;;;;;;18.77;9.80;;;;;;;0.95;97.48;103556.13;5073023;28;20027;-75
2023/01/23 07:52:35;;;;;;;17.47;9.60;;;;;;;0.95;97.19;103562.16;5071993;28;20042;-74
2023/01/23 07:55:00;;;;;;;19.83;9.47;;;;;;;0.97;97.61;103568.28;5073055;28;20107;-75
2023/01/23 07:57:25;;;;;;;17.20;9.27;;;;;;;0.99;97.62;103569.25;5073058;28;20024;-75
2023/01/23 07:59:50;;;;;;;19.07;10.13;;;;;;;0.99;97.68;103571.81;5072030;28;20021;-75
2023/01/23 08:02:16;;;;;;;16.97;9.47;;;;;;;1.01;97.50;103574.44;5061520;28;20043;-74
2023/01/23 08:04:41;;;;;;;17.27;9.67;;;;;;;1.02;97.48;103577.13;5035046;28;20020;-74
2023/01/23 08:07:06;;;;;;;18.70;9.23;;;;;;;1.05;97.32;103576.41;5052893;28;20477;-75
2023/01/23 08:09:32;;;;;;;22.37;10.37;;;;;;;1.06;97.54;103578.19;5052883;28;20025;-75
2023/01/23 08:11:57;;;;;;;20.73;9.90;;;;;;;1.07;97.50;103572.25;5071325;28;20040;-75
2023/01/23 08:14:23;;;;;;;18.63;9.53;;;;;;;1.09;97.33;103572.34;5073130;28;20017;-75
2023/01/23 08:16:52;;;;;;;17.07;9.20;;;;;;;1.09;97.50;103574.91;5054780;28;20377;-75
2023/01/23 08:19:18;;;;;;;19.53;9.87;;;;;;;1.11;97.33;103587.00;5034819;28;20056;-75
2023/01/23 08:21:45;;;;;;;17.43;9.40;;;;;;;1.14;97.39;103584.63;5052906;28;20113;-75
2023/01/23 08:24:13;;;;;;;16.07;9.43;;;;;;;1.15;97.43;103582.97;5052615;28;20053;-75
2023/01/23 08:26:39;;;;;;;18.20;10.17;;;;;;;1.18;97.23;103588.28;5053344;28;20369;-75
2023/01/23 08:29:04;;;;;;;17.93;9.73;;;;;;;1.20;97.05;103581.53;5052435;28;20504;-75
2023/01/23 08:31:29;;;;;;;17.87;9.70;;;;;;;1.23;97.29;103586.81;5053820;28;20465;-75
2023/01/23 08:33:55;;;;;;;19.07;9.83;;;;;;;1.25;97.23;103597.19;5071382;28;20025;-75
2023/01/23 08:36:21;;;;;;;18.23;10.37;;;;;;;1.26;97.30;103597.28;5071239;28;20104;-74
2023/01/23 08:38:47;;;;;;;17.57;9.77;;;;;;;1.29;97.23;103594.88;5072247;28;20115;-74
2023/01/23 08:41:12;;;;;;;20.23;10.57;;;;;;;1.30;97.07;103594.09;5052406;28;20035;-75
2023/01/23 08:43:37;;;;;;;18.13;9.90;;;;;;;1.31;97.30;103598.44;5052187;28;20411;-75
2023/01/23 08:46:03;;;;;;;19.40;10.27;;;;;;;1.33;97.00;103599.41;5052164;28;20021;-75
2023/01/23 08:48:28;;;;;;;17.80;10.00;;;;;;;1.33;96.98;103601.97;5052583;28;20029;-74
2023/01/23 08:51:05;;;;;;;16.10;9.50;;;;;;;1.36;97.05;103604.72;5067389;28;20032;-75
2023/01/23 08:53:31;;;;;;;16.37;9.20;;;;;;;1.38;97.09;103602.22;5072031;28;20024;-75
2023/01/23 08:56:05;;;;;;;18.23;10.30;;;;;;;1.41;97.01;103611.75;5071945;28;20020;-75
2023/01/23 08:58:30;;;;;;;17.27;9.47;;;;;;;1.41;96.88;103607.53;5071977;28;20035;-75
2023/01/23 09:00:55;;;;;;;18.77;9.57;;;;;;;1.43;96.98;103608.50;5069742;28;20020;-75
2023/01/23 09:03:21;;;;;;;19.30;9.50;;;;;;;1.45;96.79;103609.44;5060117;28;20066;-75
2023/01/23 09:05:46;;;;;;;18.10;9.80;;;;;;;1.49;96.85;103610.53;5057641;28;20040;-75
2023/01/23 09:08:12;;;;;;;18.30;9.53;;;;;;;1.51;96.98;103608.94;5058954;28;20025;-75
2023/01/23 09:10:37;;;;;;;20.47;9.60;;;;;;;1.53;96.90;103607.34;5051929;28;20036;-75
2023/01/23 09:13:03;;;;;;;17.43;9.33;;;;;;;1.58;96.71;103605.91;5041115;28;20081;-75
2023/01/23 09:15:28;;;;;;;18.77;9.63;;;;;;;1.62;96.77;103612.13;5053587;28;20092;-74
2023/01/23 09:17:53;;;;;;;17.70;9.73;;;;;;;1.64;96.78;103619.09;5054930;28;20035;-75
2023/01/23 09:20:19;;;;;;;19.37;9.70;;;;;;;1.67;96.62;103610.69;5051531;28;20041;-75
2023/01/23 09:22:44;;;;;;;18.87;9.70;;;;;;;1.70;96.67;103618.56;5051850;28;20391;-74
2023/01/23 09:25:10;;;;;;;19.40;10.10;;;;;;;1.73;96.33;103612.69;5051557;28;20071;-75
2023/01/23 09:27:36;;;;;;;18.87;9.57;;;;;;;1.75;96.17;103603.41;5052575;28;20495;-74
2023/01/23 09:30:01;;;;;;;18.73;9.27;;;;;;;1.78;96.36;103606.16;5059470;28;20039;-75
2023/01/23 09:32:26;;;;;;;18.17;9.23;;;;;;;1.81;96.47;103596.06;5058554;28;20035;-74
2023/01/23 09:34:53;;;;;;;17.93;9.73;;;;;;;1.83;96.31;103591.91;5054296;28;20494;-75
2023/01/23 09:37:19;;;;;;;17.03;9.07;;;;;;;1.86;96.04;103586.94;5060811;28;20047;-75
2023/01/23 09:39:44;;;;;;;17.87;9.43;;;;;;;1.88;96.00;103592.13;5052742;28;20064;-75
2023/01/23 09:42:32;;;;;;;20.37;10.10;;;;;;;1.93;95.90;103599.28;5057322;28;20032;-75
2023/01/23 09:45:04;;;;;;;19.23;9.13;;;;;;;1.94;95.92;103595.94;5055627;28;20480;-74
2023/01/23 09:47:42;;;;;;;18.73;10.07;;;;;;;1.96;95.82;103603.72;5057392;28;20447;-75
2023/01/23 09:50:20;;;;;;;17.17;8.60;;;;;;;1.99;95.71;103603.88;5065995;28;20375;-74
2023/01/23 09:52:54;;;;;;;17.40;9.17;;;;;;;2.02;95.54;103613.44;5065086;28;20115;-74
2023/01/23 09:55:28;;;;;;;16.47;8.83;;;;;;;2.06;95.70;103615.34;5052731;28;20131;-74
2023/01/23 09:57:56;;;;;;;18.53;9.57;;;;;;;2.07;95.47;103622.25;5069800;28;20028;-74
2023/01/23 10:00:24;;;;;;;17.00;9.17;;;;;;;2.07;95.48;103624.81;5061255;28;20029;-75
2023/01/23 10:02:52;;;;;;;19.57;9.10;;;;;;;2.08;95.29;103624.03;5053844;28;21956;-75
2023/01/23 10:05:23;;;;;;;18.83;9.53;;;;;;;2.08;95.22;103626.59;5061664;28;20040;-75
2023/01/23 10:08:25;;;;;;;19.35;10.20;;;;;;;2.09;95.23;103630.94;5048564;28;20119;-75
2023/01/23 10:11:03;;;;;;;17.30;8.97;;;;;;;2.08;94.98;103630.06;5061673;28;20496;-75
2023/01/23 10:13:59;;;;;;;16.87;9.23;;;;;;;2.11;95.40;103624.19;5058475;28;20029;-74
2023/01/23 10:16:48;;;;;;;16.47;8.67;;;;;;;2.15;95.47;103625.25;5067344;28;20097;-75
2023/01/23 10:19:38;;;;;;;16.70;9.00;;;;;;;2.16;94.99;103621.88;5064288;28;20051;-75
2023/01/23 10:22:22;;;;;;;17.50;9.13;;;;;;;2.16;94.92;103617.63;5062992;28;20040;-75
2023/01/23 10:24:50;;;;;;;15.73;8.47;;;;;;;2.20;94.54;103624.72;5057442;28;20104;-74
2023/01/23 10:27:21;;;;;;;18.10;8.67;;;;;;;2.23;94.80;103624.84;5058093;28;20029;-75
2023/01/23 10:30:13;;;;;;;19.33;9.68;;;;;;;2.27;94.50;103631.06;5056342;28;20028;-74
2023/01/23 10:32:56;;;;;;;17.65;8.30;;;;;;;2.28;94.65;103637.97;5052542;28;20102;-74
2023/01/23 10:35:39;;;;;;;15.97;8.53;;;;;;;2.27;94.36;103628.50;5064729;28;20099;-74
2023/01/23 10:38:21;;;;;;;15.90;8.57;;;;;;;2.27;94.15;103626.81;5065543;28;20742;-74
2023/01/23 10:43:32;;;;;;;15.10;8.37;;;;;;;2.32;94.32;103623.59;5064634;28;20411;-74
2023/01/23 10:45:57;;;;;;;14.97;8.70;;;;;;;2.33;93.95;103622.81;5066457;28;20025;-74
2023/01/23 10:48:42;;;;;;;16.57;8.70;;;;;;;2.33;93.66;103621.09;5062985;28;20116;-75
2023/01/23 10:51:23;;;;;;;14.57;8.23;;;;;;;2.37;93.84;103624.75;5052943;28;20036;-75
2023/01/23 10:54:01;;;;;;;16.77;9.23;;;;;;;2.38;94.02;103621.38;5067205;28;20017;-75
2023/01/23 10:56:26;;;;;;;15.83;9.00;;;;;;;2.41;93.97;103622.41;5069341;28;20036;-75
2023/01/23 10:58:54;;;;;;;16.13;8.90;;;;;;;2.41;93.41;103618.94;5063197;28;20553;-75
2023/01/23 11:01:30;;;;;;;16.53;9.27;;;;;;;2.42;93.24;103625.84;5066481;28;20021;-75
2023/01/23 11:03:55;;;;;;;18.93;9.23;;;;;;;2.45;93.34;103625.16;5065608;28;20391;-74
2023/01/23 11:06:24;;;;;;;15.47;8.57;;;;;;;2.46;93.14;103625.22;5066832;28;20033;-74
2023/01/23 11:08:55;;;;;;;16.23;8.80;;;;;;;2.46;92.98;103616.63;5061875;28;20025;-75
2023/01/23 11:11:22;;;;;;;14.33;8.33;;;;;;;2.44;92.80;103619.09;5063456;28;20048;-74
2023/01/23 11:14:04;;;;;;;15.97;9.17;;;;;;;2.47;92.93;103624.41;5063510;28;20032;-74
2023/01/23 11:16:29;;;;;;;15.32;8.32;;;;;;;2.48;93.24;103621.03;5066885;28;20498;-74
2023/01/23 11:19:14;;;;;;;16.20;8.63;;;;;;;2.50;92.81;103619.44;5063819;28;20115;-75
2023/01/23 11:22:01;;;;;;;17.27;8.60;;;;;;;2.53;92.57;103616.13;5064791;28;20051;-74
2023/01/23 11:24:37;;;;;;;15.37;8.57;;;;;;;2.54;92.60;103626.53;5066448;28;20063;-75
2023/01/23 11:27:14;;;;;;;15.93;8.47;;;;;;;2.58;92.74;103623.28;5066945;28;20548;-74
2023/01/23 11:30:23;;;;;;;17.27;8.60;;;;;;;2.65;92.95;103623.63;5063743;28;20040;-75
2023/01/23 11:33:04;;;;;;;15.30;8.33;;;;;;;2.69;92.49;103617.84;5068088;28;20109;-75
2023/01/23 11:35:51;;;;;;;16.53;8.57;;;;;;;2.74;92.65;103613.81;5066115;28;20115;-75